Le Ponant — FGZZ — position and weather

sailwx.info

Track history (hours):
 
Tides and Currents Weather Stations Pressure Air Temp Water Temp Dewpoint Dewpoint Depression Visibility Wind Speed Wind Dir Waves Ship Positions

Le Ponant

Operator: Compangy des Iles du Ponant

Last reported at 2017-Jun-23 13:38 UTC. Time now 2017-Jun-24 05:19 UTC.
Position N 38°39' E 015°09'.

Length 84 m; draft 4.2 m.

Type: Passenger vessel. MMSI: 227186000.

Date/timePositionNaut miles runAvg speedWind from/ knotsBaromVisibWave heightAir tempDewpointWater temp
2017-Jun-23 13:38N 38°39' E 015°09'810.3
2017-Jun-23 12:53N 38°33' E 015°03'410.5
2017-Jun-23 12:30N 38°29' E 014°60'15 1.5
2017-Jun-23 02:13N 38°26' E 015°19'2 7.1
2017-Jun-23 01:57N 38°24' E 015°20'3 7.0
2017-Jun-23 01:31N 38°21' E 015°22'3 5.2
2017-Jun-23 00:58N 38°23' E 015°20'3 7.1
2017-Jun-23 00:30N 38°25' E 015°16'3 2.3
2017-Jun-22 23:21N 38°25' E 015°19'3 7.0
2017-Jun-22 22:52N 38°24' E 015°23'2 6.9
2017-Jun-22 22:31N 38°24' E 015°26'4 7.0
2017-Jun-22 22:00N 38°23' E 015°31'3 7.1
2017-Jun-22 21:31N 38°21' E 015°35'4 7.5
2017-Jun-22 21:00N 38°20' E 015°39'7 5.9
2017-Jun-22 19:49N 38°13' E 015°37'410.0
2017-Jun-22 19:27N 38°09' E 015°36'4 8.3
2017-Jun-22 18:56N 38°05' E 015°35'5 7.7
2017-Jun-22 18:15N 38°00' E 015°32'107 4.7
2017-Jun-21 19:46N 36°18' E 014°54'411.3
2017-Jun-21 19:24N 36°15' E 014°51'611.2
2017-Jun-21 18:53N 36°10' E 014°47'711.0
2017-Jun-21 18:16N 36°05' E 014°41'311.0
2017-Jun-21 18:00N 36°02' E 014°39'510.9
2017-Jun-21 17:30N 35°58' E 014°35'5 9.3
2017-Jun-21 17:00N 35°54' E 014°32'1 0.4
2017-Jun-21 13:39N 35°54' E 014°31'0 0.0
2017-Jun-21 13:21N 35°54' E 014°31'0 0.0
2017-Jun-21 12:57N 35°54' E 014°31'0 0.0
2017-Jun-21 04:19N 35°54' E 014°31'2 7.7
2017-Jun-21 04:00N 35°55' E 014°33'4 7.8
2017-Jun-21 03:30N 35°59' E 014°36'4 7.5
2017-Jun-21 03:00N 36°01' E 014°39'4 7.3
2017-Jun-21 02:30N 36°05' E 014°41'4 7.4
2017-Jun-21 02:00N 36°08' E 014°44'4 7.6
2017-Jun-21 01:30N 36°11' E 014°47'5 7.8
2017-Jun-21 00:55N 36°14' E 014°50'13 7.7
2017-Jun-20 23:10N 36°25' E 015°00'15 7.8
2017-Jun-20 21:14N 36°37' E 015°11'3 7.7
2017-Jun-20 20:50N 36°40' E 015°13'3 7.6
2017-Jun-20 20:30N 36°42' E 015°15'4 7.5
2017-Jun-20 19:56N 36°46' E 015°17'3 7.5
2017-Jun-20 19:30N 36°49' E 015°19'4 7.4
2017-Jun-20 18:59N 36°52' E 015°21'4 7.4
2017-Jun-20 18:30N 36°55' E 015°23'4 7.3
2017-Jun-20 18:00N 36°58' E 015°26'3 6.0
2017-Jun-20 17:30N 37°01' E 015°25'4 7.1
2017-Jun-20 16:58N 37°03' E 015°20'55 1.5
2017-Jun-19 03:55N 37°57' E 015°25'6 7.0
2017-Jun-19 03:04N 38°02' E 015°30'1 7.2
2017-Jun-19 02:58N 38°03' E 015°30'4 7.7
2017-Jun-19 02:29N 38°06' E 015°32'510.1
2017-Jun-19 02:00N 38°10' E 015°35'5 9.8
2017-Jun-19 01:30N 38°15' E 015°38'3 6.3
2017-Jun-19 01:00N 38°18' E 015°38'510.4
2017-Jun-19 00:30N 38°20' E 015°32'5 9.8
2017-Jun-19 00:00N 38°21' E 015°26'5 9.9
2017-Jun-18 23:30N 38°21' E 015°20'5 9.8
2017-Jun-18 22:58N 38°20' E 015°13'4 7.5
2017-Jun-18 22:30N 38°19' E 015°09'611.0
2017-Jun-18 21:57N 38°18' E 015°01'5411.1
2017-Jun-18 17:07N 38°12' E 013°53'110.6
2017-Jun-18 17:00N 38°11' E 013°52'510.6
2017-Jun-18 16:29N 38°11' E 013°45'510.5
2017-Jun-18 16:00N 38°10' E 013°39'510.1
2017-Jun-18 15:30N 38°09' E 013°32'5 9.9
2017-Jun-18 15:00N 38°09' E 013°26'3 3.4
2017-Jun-18 14:00N 38°08' E 013°22'0 0.0
2017-Jun-18 13:30N 38°08' E 013°22'0 0.0
2017-Jun-18 12:57N 38°08' E 013°22'0 0.0
2017-Jun-18 12:30N 38°08' E 013°22'0 0.0
2017-Jun-18 12:00N 38°08' E 013°22'0 0.0
2017-Jun-18 11:30N 38°08' E 013°22'0 0.0
2017-Jun-18 11:00N 38°08' E 013°22'0 0.0
2017-Jun-18 10:30N 38°08' E 013°22'0 0.0
2017-Jun-18 10:00N 38°08' E 013°22'0 0.0
2017-Jun-18 09:30N 38°08' E 013°22'0 0.0
2017-Jun-18 09:00N 38°08' E 013°22'0 0.0
2017-Jun-18 08:30N 38°08' E 013°22'0 0.0
2017-Jun-18 08:00N 38°08' E 013°22'0 0.0
2017-Jun-18 07:30N 38°08' E 013°22'0 0.0
2017-Jun-18 07:00N 38°08' E 013°22'0 0.0
2017-Jun-18 06:30N 38°08' E 013°22'0 0.0
2017-Jun-18 06:00N 38°08' E 013°22'0 0.0
2017-Jun-18 05:30N 38°08' E 013°22'2 3.1
2017-Jun-18 05:00N 38°08' E 013°24'3 6.6
2017-Jun-18 04:30N 38°11' E 013°26'3 5.0
2017-Jun-18 04:00N 38°13' E 013°26'3 6.2
2017-Jun-18 03:30N 38°15' E 013°23'3 6.2
2017-Jun-18 03:00N 38°17' E 013°20'4 7.1
2017-Jun-18 02:30N 38°17' E 013°15'4 7.0
2017-Jun-18 02:00N 38°16' E 013°11'4 7.1
2017-Jun-18 01:30N 38°16' E 013°06'4 7.0
2017-Jun-18 01:00N 38°16' E 013°02'4 7.0
2017-Jun-18 00:30N 38°15' E 012°57'3 7.1
2017-Jun-18 00:00N 38°15' E 012°53'19 6.8
2017-Jun-17 21:12N 38°06' E 012°31'2 7.5
2017-Jun-17 21:00N 38°05' E 012°30'4 7.7
2017-Jun-17 20:30N 38°01' E 012°28'2 4.0
2017-Jun-17 20:00N 38°01' E 012°31'0 0.0
2017-Jun-17 19:18N 38°01' E 012°31'0 0.0
2017-Jun-17 18:51N 38°01' E 012°31'0 0.0
2017-Jun-17 18:24N 38°01' E 012°31'0 0.0
2017-Jun-17 17:54N 38°01' E 012°31'0 0.0
2017-Jun-17 17:24N 38°01' E 012°31'0 0.0
2017-Jun-17 16:54N 38°01' E 012°31'0 0.0
2017-Jun-17 16:24N 38°01' E 012°31'0 0.0
2017-Jun-17 15:54N 38°01' E 012°31'0 0.0
2017-Jun-17 15:27N 38°01' E 012°31'0 0.0
2017-Jun-17 14:54N 38°01' E 012°31'0 0.0
2017-Jun-17 14:12N 38°01' E 012°31'0 0.0
2017-Jun-17 13:27N 38°01' E 012°31'0 0.0
2017-Jun-17 13:00N 38°01' E 012°31'0 0.0
2017-Jun-17 12:30N 38°01' E 012°31'0 0.0
2017-Jun-17 12:00N 38°01' E 012°31'0 0.0
2017-Jun-17 11:30N 38°01' E 012°31'0 0.0
2017-Jun-17 11:00N 38°01' E 012°31'0 0.0
2017-Jun-17 10:30N 38°01' E 012°31'0 0.0
2017-Jun-17 10:00N 38°01' E 012°31'0 0.0
2017-Jun-17 09:30N 38°01' E 012°31'0 0.0
2017-Jun-17 09:00N 38°01' E 012°31'0 0.0
2017-Jun-17 08:30N 38°01' E 012°31'0 0.0
2017-Jun-17 08:00N 38°01' E 012°31'0 0.0
2017-Jun-17 07:30N 38°01' E 012°31'0 0.0
2017-Jun-17 07:00N 38°01' E 012°31'1 3.0
2017-Jun-17 06:30N 38°00' E 012°29'3 6.5
2017-Jun-17 06:00N 38°04' E 012°29'11 9.4
2017-Jun-17 04:51N 38°12' E 012°39'12 9.7
2017-Jun-17 03:37N 38°16' E 012°53'2 9.9
2017-Jun-17 03:25N 38°17' E 012°55'4 9.9
2017-Jun-17 03:00N 38°18' E 012°60'5 9.8
2017-Jun-17 02:30N 38°20' E 013°06'510.0
2017-Jun-17 02:00N 38°21' E 013°12'510.1
2017-Jun-17 01:30N 38°23' E 013°18'510.2
2017-Jun-17 01:00N 38°24' E 013°24'510.3
2017-Jun-17 00:30N 38°26' E 013°31'510.2
2017-Jun-17 00:00N 38°27' E 013°37'510.0
2017-Jun-16 23:30N 38°29' E 013°43'5 9.8
2017-Jun-16 22:57N 38°30' E 013°50'66 8.3
2017-Jun-16 14:59N 38°47' E 015°12'2 1.9
2017-Jun-16 14:08N 38°45' E 015°11'13 5.7
2017-Jun-16 11:57N 38°34' E 015°04'610.2
2017-Jun-16 11:24N 38°29' E 014°60'0 0.1
2017-Jun-16 05:15N 38°29' E 014°59'13121.6
2017-Jun-15 23:10N 40°36' E 014°17'1542.6
2017-Jun-15 22:50N 40°50' E 014°15'6123.3
2017-Jun-15 20:12N 39°52' E 014°41'3610.8
2017-Jun-15 16:54N 40°27' E 014°33'1010.9
2017-Jun-15 16:00N 40°37' E 014°31'4 8.6
2017-Jun-15 15:31N 40°38' E 014°36'0 0.1
2017-Jun-15 09:11N 40°38' E 014°37'12 0.8
2017-Jun-14 18:29N 40°33' E 014°22'5 9.4
2017-Jun-14 18:00N 40°35' E 014°17'611.5
2017-Jun-14 17:29N 40°41' E 014°17'511.5
2017-Jun-14 17:00N 40°46' E 014°16'4 7.4
2017-Jun-14 16:30N 40°50' E 014°16'0 0.5
2017-Jun-14 15:59N 40°50' E 014°15'0 0.0
2017-Jun-14 15:30N 40°50' E 014°15'0 0.0
2017-Jun-14 15:00N 40°50' E 014°15'0 0.0
2017-Jun-14 14:30N 40°50' E 014°15'0 0.0
2017-Jun-14 05:51N 40°50' E 014°15'0 0.0
2017-Jun-14 05:12N 40°50' E 014°15'0 0.0
2017-Jun-14 04:54N 40°50' E 014°15'0 0.0
2017-Jun-14 04:24N 40°50' E 014°15'0 0.0
2017-Jun-14 03:55N 40°50' E 014°15'0 0.0
2017-Jun-14 03:28N 40°50' E 014°15'0 0.0
2017-Jun-14 02:58N 40°50' E 014°15'0 0.0
2017-Jun-14 02:28N 40°50' E 014°15'0 0.0
2017-Jun-14 01:58N 40°50' E 014°15'0 0.0
2017-Jun-14 01:28N 40°50' E 014°15'0 0.0
2017-Jun-14 00:55N 40°50' E 014°15'0 0.0
2017-Jun-14 00:19N 40°50' E 014°15'0 0.0
2017-Jun-13 23:58N 40°50' E 014°15'0 0.0
2017-Jun-13 23:29N 40°50' E 014°15'0 0.0
2017-Jun-13 22:56N 40°50' E 014°15'0 0.0
2017-Jun-13 22:29N 40°50' E 014°15'0 0.0
2017-Jun-13 21:59N 40°50' E 014°15'0 0.0
2017-Jun-13 21:08N 40°50' E 014°15'0 0.0
2017-Jun-13 20:36N 40°50' E 014°15'0 0.0
2017-Jun-13 20:18N 40°50' E 014°15'0 0.0
2017-Jun-13 19:06N 40°50' E 014°15'0 0.2
2017-Jun-13 18:56N 40°50' E 014°15'2 4.0
2017-Jun-13 18:30N 40°49' E 014°17'510.4
2017-Jun-13 17:59N 40°44' E 014°17'510.6
2017-Jun-13 17:30N 40°39' E 014°17'6 8.5
2017-Jun-13 16:45N 40°33' E 014°20'310.2
2017-Jun-13 16:30N 40°33' E 014°24'  
Track history (hours):
 
Tides and Currents Weather Stations Pressure Air Temp Water Temp Dewpoint Dewpoint Depression Visibility Wind Speed Wind Dir Waves Ship Positions

Le Ponant

Operator: Compangy des Iles du Ponant

Last reported at 2017-Jun-23 13:38 UTC. Time now 2017-Jun-24 05:19 UTC.
Position N 38°39' E 015°09'.

Length 84 m; draft 4.2 m.

Type: Passenger vessel. MMSI: 227186000.

Date/timePositionNaut miles runAvg speedWind from/ knotsBaromVisibWave heightAir tempDewpointWater temp
2017-Jun-23 13:38N 38°39' E 015°09'810.3
2017-Jun-23 12:53N 38°33' E 015°03'410.5
2017-Jun-23 12:30N 38°29' E 014°60'15 1.5
2017-Jun-23 02:13N 38°26' E 015°19'2 7.1
2017-Jun-23 01:57N 38°24' E 015°20'3 7.0
2017-Jun-23 01:31N 38°21' E 015°22'3 5.2
2017-Jun-23 00:58N 38°23' E 015°20'3 7.1
2017-Jun-23 00:30N 38°25' E 015°16'3 2.3
2017-Jun-22 23:21N 38°25' E 015°19'3 7.0
2017-Jun-22 22:52N 38°24' E 015°23'2 6.9
2017-Jun-22 22:31N 38°24' E 015°26'4 7.0
2017-Jun-22 22:00N 38°23' E 015°31'3 7.1
2017-Jun-22 21:31N 38°21' E 015°35'4 7.5
2017-Jun-22 21:00N 38°20' E 015°39'7 5.9
2017-Jun-22 19:49N 38°13' E 015°37'410.0
2017-Jun-22 19:27N 38°09' E 015°36'4 8.3
2017-Jun-22 18:56N 38°05' E 015°35'5 7.7
2017-Jun-22 18:15N 38°00' E 015°32'107 4.7
2017-Jun-21 19:46N 36°18' E 014°54'411.3
2017-Jun-21 19:24N 36°15' E 014°51'611.2
2017-Jun-21 18:53N 36°10' E 014°47'711.0
2017-Jun-21 18:16N 36°05' E 014°41'311.0
2017-Jun-21 18:00N 36°02' E 014°39'510.9
2017-Jun-21 17:30N 35°58' E 014°35'5 9.3
2017-Jun-21 17:00N 35°54' E 014°32'1 0.4
2017-Jun-21 13:39N 35°54' E 014°31'0 0.0
2017-Jun-21 13:21N 35°54' E 014°31'0 0.0
2017-Jun-21 12:57N 35°54' E 014°31'0 0.0
2017-Jun-21 04:19N 35°54' E 014°31'2 7.7
2017-Jun-21 04:00N 35°55' E 014°33'4 7.8
2017-Jun-21 03:30N 35°59' E 014°36'4 7.5
2017-Jun-21 03:00N 36°01' E 014°39'4 7.3
2017-Jun-21 02:30N 36°05' E 014°41'4 7.4
2017-Jun-21 02:00N 36°08' E 014°44'4 7.6
2017-Jun-21 01:30N 36°11' E 014°47'5 7.8
2017-Jun-21 00:55N 36°14' E 014°50'13 7.7
2017-Jun-20 23:10N 36°25' E 015°00'15 7.8
2017-Jun-20 21:14N 36°37' E 015°11'3 7.7
2017-Jun-20 20:50N 36°40' E 015°13'3 7.6
2017-Jun-20 20:30N 36°42' E 015°15'4 7.5
2017-Jun-20 19:56N 36°46' E 015°17'3 7.5
2017-Jun-20 19:30N 36°49' E 015°19'4 7.4
2017-Jun-20 18:59N 36°52' E 015°21'4 7.4
2017-Jun-20 18:30N 36°55' E 015°23'4 7.3
2017-Jun-20 18:00N 36°58' E 015°26'3 6.0
2017-Jun-20 17:30N 37°01' E 015°25'4 7.1
2017-Jun-20 16:58N 37°03' E 015°20'55 1.5
2017-Jun-19 03:55N 37°57' E 015°25'6 7.0
2017-Jun-19 03:04N 38°02' E 015°30'1 7.2
2017-Jun-19 02:58N 38°03' E 015°30'4 7.7
2017-Jun-19 02:29N 38°06' E 015°32'510.1
2017-Jun-19 02:00N 38°10' E 015°35'5 9.8
2017-Jun-19 01:30N 38°15' E 015°38'3 6.3
2017-Jun-19 01:00N 38°18' E 015°38'510.4
2017-Jun-19 00:30N 38°20' E 015°32'5 9.8
2017-Jun-19 00:00N 38°21' E 015°26'5 9.9
2017-Jun-18 23:30N 38°21' E 015°20'5 9.8
2017-Jun-18 22:58N 38°20' E 015°13'4 7.5
2017-Jun-18 22:30N 38°19' E 015°09'611.0
2017-Jun-18 21:57N 38°18' E 015°01'5411.1
2017-Jun-18 17:07N 38°12' E 013°53'110.6
2017-Jun-18 17:00N 38°11' E 013°52'510.6
2017-Jun-18 16:29N 38°11' E 013°45'510.5
2017-Jun-18 16:00N 38°10' E 013°39'510.1
2017-Jun-18 15:30N 38°09' E 013°32'5 9.9
2017-Jun-18 15:00N 38°09' E 013°26'3 3.4
2017-Jun-18 14:00N 38°08' E 013°22'0 0.0
2017-Jun-18 13:30N 38°08' E 013°22'0 0.0
2017-Jun-18 12:57N 38°08' E 013°22'0 0.0
2017-Jun-18 12:30N 38°08' E 013°22'0 0.0
2017-Jun-18 12:00N 38°08' E 013°22'0 0.0
2017-Jun-18 11:30N 38°08' E 013°22'0 0.0
2017-Jun-18 11:00N 38°08' E 013°22'0 0.0
2017-Jun-18 10:30N 38°08' E 013°22'0 0.0
2017-Jun-18 10:00N 38°08' E 013°22'0 0.0
2017-Jun-18 09:30N 38°08' E 013°22'0 0.0
2017-Jun-18 09:00N 38°08' E 013°22'0 0.0
2017-Jun-18 08:30N 38°08' E 013°22'0 0.0
2017-Jun-18 08:00N 38°08' E 013°22'0 0.0
2017-Jun-18 07:30N 38°08' E 013°22'0 0.0
2017-Jun-18 07:00N 38°08' E 013°22'0 0.0
2017-Jun-18 06:30N 38°08' E 013°22'0 0.0
2017-Jun-18 06:00N 38°08' E 013°22'0 0.0
2017-Jun-18 05:30N 38°08' E 013°22'2 3.1
2017-Jun-18 05:00N 38°08' E 013°24'3 6.6
2017-Jun-18 04:30N 38°11' E 013°26'3 5.0
2017-Jun-18 04:00N 38°13' E 013°26'3 6.2
2017-Jun-18 03:30N 38°15' E 013°23'3 6.2
2017-Jun-18 03:00N 38°17' E 013°20'4 7.1
2017-Jun-18 02:30N 38°17' E 013°15'4 7.0
2017-Jun-18 02:00N 38°16' E 013°11'4 7.1
2017-Jun-18 01:30N 38°16' E 013°06'4 7.0
2017-Jun-18 01:00N 38°16' E 013°02'4 7.0
2017-Jun-18 00:30N 38°15' E 012°57'3 7.1
2017-Jun-18 00:00N 38°15' E 012°53'19 6.8
2017-Jun-17 21:12N 38°06' E 012°31'2 7.5
2017-Jun-17 21:00N 38°05' E 012°30'4 7.7
2017-Jun-17 20:30N 38°01' E 012°28'2 4.0
2017-Jun-17 20:00N 38°01' E 012°31'0 0.0
2017-Jun-17 19:18N 38°01' E 012°31'0 0.0
2017-Jun-17 18:51N 38°01' E 012°31'0 0.0
2017-Jun-17 18:24N 38°01' E 012°31'0 0.0
2017-Jun-17 17:54N 38°01' E 012°31'0 0.0
2017-Jun-17 17:24N 38°01' E 012°31'0 0.0
2017-Jun-17 16:54N 38°01' E 012°31'0 0.0
2017-Jun-17 16:24N 38°01' E 012°31'0 0.0
2017-Jun-17 15:54N 38°01' E 012°31'0 0.0
2017-Jun-17 15:27N 38°01' E 012°31'0 0.0
2017-Jun-17 14:54N 38°01' E 012°31'0 0.0
2017-Jun-17 14:12N 38°01' E 012°31'0 0.0
2017-Jun-17 13:27N 38°01' E 012°31'0 0.0
2017-Jun-17 13:00N 38°01' E 012°31'0 0.0
2017-Jun-17 12:30N 38°01' E 012°31'0 0.0
2017-Jun-17 12:00N 38°01' E 012°31'0 0.0
2017-Jun-17 11:30N 38°01' E 012°31'0 0.0
2017-Jun-17 11:00N 38°01' E 012°31'0 0.0
2017-Jun-17 10:30N 38°01' E 012°31'0 0.0
2017-Jun-17 10:00N 38°01' E 012°31'0 0.0
2017-Jun-17 09:30N 38°01' E 012°31'0 0.0
2017-Jun-17 09:00N 38°01' E 012°31'0 0.0
2017-Jun-17 08:30N 38°01' E 012°31'0 0.0
2017-Jun-17 08:00N 38°01' E 012°31'0 0.0
2017-Jun-17 07:30N 38°01' E 012°31'0 0.0
2017-Jun-17 07:00N 38°01' E 012°31'1 3.0
2017-Jun-17 06:30N 38°00' E 012°29'3 6.5
2017-Jun-17 06:00N 38°04' E 012°29'11 9.4
2017-Jun-17 04:51N 38°12' E 012°39'12 9.7
2017-Jun-17 03:37N 38°16' E 012°53'2 9.9
2017-Jun-17 03:25N 38°17' E 012°55'4 9.9
2017-Jun-17 03:00N 38°18' E 012°60'5 9.8
2017-Jun-17 02:30N 38°20' E 013°06'510.0
2017-Jun-17 02:00N 38°21' E 013°12'510.1
2017-Jun-17 01:30N 38°23' E 013°18'510.2
2017-Jun-17 01:00N 38°24' E 013°24'510.3
2017-Jun-17 00:30N 38°26' E 013°31'510.2
2017-Jun-17 00:00N 38°27' E 013°37'510.0
2017-Jun-16 23:30N 38°29' E 013°43'5 9.8
2017-Jun-16 22:57N 38°30' E 013°50'66 8.3
2017-Jun-16 14:59N 38°47' E 015°12'2 1.9
2017-Jun-16 14:08N 38°45' E 015°11'13 5.7
2017-Jun-16 11:57N 38°34' E 015°04'610.2
2017-Jun-16 11:24N 38°29' E 014°60'0 0.1
2017-Jun-16 05:15N 38°29' E 014°59'13121.6
2017-Jun-15 23:10N 40°36' E 014°17'1542.6
2017-Jun-15 22:50N 40°50' E 014°15'6123.3
2017-Jun-15 20:12N 39°52' E 014°41'3610.8
2017-Jun-15 16:54N 40°27' E 014°33'1010.9
2017-Jun-15 16:00N 40°37' E 014°31'4 8.6
2017-Jun-15 15:31N 40°38' E 014°36'0 0.1
2017-Jun-15 09:11N 40°38' E 014°37'12 0.8
2017-Jun-14 18:29N 40°33' E 014°22'5 9.4
2017-Jun-14 18:00N 40°35' E 014°17'611.5
2017-Jun-14 17:29N 40°41' E 014°17'511.5
2017-Jun-14 17:00N 40°46' E 014°16'4 7.4
2017-Jun-14 16:30N 40°50' E 014°16'0 0.5
2017-Jun-14 15:59N 40°50' E 014°15'0 0.0
2017-Jun-14 15:30N 40°50' E 014°15'0 0.0
2017-Jun-14 15:00N 40°50' E 014°15'0 0.0
2017-Jun-14 14:30N 40°50' E 014°15'0 0.0
2017-Jun-14 05:51N 40°50' E 014°15'0 0.0
2017-Jun-14 05:12N 40°50' E 014°15'0 0.0
2017-Jun-14 04:54N 40°50' E 014°15'0 0.0
2017-Jun-14 04:24N 40°50' E 014°15'0 0.0
2017-Jun-14 03:55N 40°50' E 014°15'0 0.0
2017-Jun-14 03:28N 40°50' E 014°15'0 0.0
2017-Jun-14 02:58N 40°50' E 014°15'0 0.0
2017-Jun-14 02:28N 40°50' E 014°15'0 0.0
2017-Jun-14 01:58N 40°50' E 014°15'0 0.0
2017-Jun-14 01:28N 40°50' E 014°15'0 0.0
2017-Jun-14 00:55N 40°50' E 014°15'0 0.0
2017-Jun-14 00:19N 40°50' E 014°15'0 0.0
2017-Jun-13 23:58N 40°50' E 014°15'0 0.0
2017-Jun-13 23:29N 40°50' E 014°15'0 0.0
2017-Jun-13 22:56N 40°50' E 014°15'0 0.0
2017-Jun-13 22:29N 40°50' E 014°15'0 0.0
2017-Jun-13 21:59N 40°50' E 014°15'0 0.0
2017-Jun-13 21:08N 40°50' E 014°15'0 0.0
2017-Jun-13 20:36N 40°50' E 014°15'0 0.0
2017-Jun-13 20:18N 40°50' E 014°15'0 0.0
2017-Jun-13 19:06N 40°50' E 014°15'0 0.2
2017-Jun-13 18:56N 40°50' E 014°15'2 4.0
2017-Jun-13 18:30N 40°49' E 014°17'510.4
2017-Jun-13 17:59N 40°44' E 014°17'510.6
2017-Jun-13 17:30N 40°39' E 014°17'6 8.5
2017-Jun-13 16:45N 40°33' E 014°20'310.2
2017-Jun-13 16:30N 40°33' E 014°24'  

Dump ship's entire track history